^^
Station Historical Data
Daily Summary for December 20, 2017 Units:  Both    English   Metric
« Previous Day
Next Day »
Daily Weekly Monthly Yearly Custom
  High: Low: Average:
Temperature: TemperatureF °F /  -17.8 °C 61.5 °F /  16.4 °C 69.8 °F /  21 °C
Dew Point: DewpointF °F /  -17.8 °C 53.2 °F /  11.8 °C 58.4 °F /  14.7 °C
Humidity: Humidity% 36% 71%
Wind Speed: WindSpeedMPHmph /  0km/h - 1.8mph /  2.9km/h
Wind Gust: WindSpeedGustMPHmph /  0km/h - -
Wind- - ESE
Pressure: PressureIn in /  0 hPa 29.68 in /  1005 hPa -
Precipitation: 2.13 in /  54.1 mm    
Historical Graphs
 
 
Tabular Data for December 20, 2017
Time Temperature Dew Point Pressure Wind Wind Speed Wind Gust Humidity Rainfall Rate (Hourly) solar Conditions
TemperatureF °F /  -17.8 °C DewpointF °F /  -17.8 °C PressureInin /  0hPa Calm     Humidity% HourlyPrecipInin /  0mm SolarRadiationWatts/m^2 W/m2 Conditions
00:01 67.6 °F /  19.8 °C 59.4 °F /  15.2 °C 29.72in /  1006.3hPa ENE 0.9mph /  1.4km/h 6.0mph /  9.7km/h 75% 0.00in /  0mm 0.0 W/m2
00:06 67.3 °F /  19.6 °C 59.9 °F /  15.5 °C 29.72in /  1006.3hPa NE 0.9mph /  1.4km/h 9.0mph /  14.5km/h 77% 0.00in /  0mm 0.0 W/m2
00:11 67.1 °F /  19.5 °C 59.7 °F /  15.4 °C 29.72in /  1006.3hPa East 4.0mph /  6.4km/h 8.0mph /  12.9km/h 77% 0.00in /  0mm 0.0 W/m2
00:16 66.9 °F /  19.4 °C 59.9 °F /  15.5 °C 29.72in /  1006.3hPa NNE 4.0mph /  6.4km/h 8.0mph /  12.9km/h 78% 0.00in /  0mm 0.0 W/m2
00:22 66.7 °F /  19.3 °C 59.7 °F /  15.4 °C 29.72in /  1006.3hPa East 6.0mph /  9.7km/h 8.0mph /  12.9km/h 78% 0.00in /  0mm 0.0 W/m2
00:27 66.6 °F /  19.2 °C 59.9 °F /  15.5 °C 29.72in /  1006.3hPa SE 8.1mph /  13km/h 8.1mph /  13km/h 79% 0.00in /  0mm 0.0 W/m2
00:29 66.6 °F /  19.2 °C 59.9 °F /  15.5 °C 29.71in /  1006hPa NE 2.0mph /  3.2km/h 9.0mph /  14.5km/h 79% 0.00in /  0mm 0.0 W/m2
00:34 66.4 °F /  19.1 °C 59.7 °F /  15.4 °C 29.71in /  1006hPa NNE 6.9mph /  11.1km/h 7.0mph /  11.3km/h 79% 0.00in /  0mm 0.0 W/m2
00:39 66.4 °F /  19.1 °C 60.1 °F /  15.6 °C 29.71in /  1006hPa ENE 6.9mph /  11.1km/h 10.0mph /  16.1km/h 80% 0.00in /  0mm 0.0 W/m2
00:44 66.2 °F /  19 °C 59.9 °F /  15.5 °C 29.71in /  1006hPa NE 0.9mph /  1.4km/h 7.0mph /  11.3km/h 80% 0.00in /  0mm 0.0 W/m2
00:49 66.0 °F /  18.9 °C 60.1 °F /  15.6 °C 29.71in /  1006hPa East 8.1mph /  13km/h 9.0mph /  14.5km/h 81% 0.00in /  0mm 0.0 W/m2
00:54 66.0 °F /  18.9 °C 60.1 °F /  15.6 °C 29.71in /  1006hPa Calm   3.0mph /  4.8km/h 81% 0.00in /  0mm 0.0 W/m2
00:59 65.8 °F /  18.8 °C 59.9 °F /  15.5 °C 29.71in /  1006hPa East 0.9mph /  1.4km/h 7.0mph /  11.3km/h 81% 0.00in /  0mm 0.0 W/m2
01:04 65.8 °F /  18.8 °C 60.3 °F /  15.7 °C 29.71in /  1006hPa ESE 2.0mph /  3.2km/h 10.0mph /  16.1km/h 82% 0.00in /  0mm 0.0 W/m2
01:09 65.7 °F /  18.7 °C 60.1 °F /  15.6 °C 29.71in /  1006hPa East 2.9mph /  4.7km/h 6.0mph /  9.7km/h 82% 0.00in /  0mm 0.0 W/m2
01:14 65.7 °F /  18.7 °C 60.1 °F /  15.6 °C 29.71in /  1006hPa SE 2.9mph /  4.7km/h 11.0mph /  17.7km/h 82% 0.00in /  0mm 0.0 W/m2
01:19 65.7 °F /  18.7 °C 60.1 °F /  15.6 °C 29.70in /  1005.6hPa East 4.9mph /  7.9km/h 7.0mph /  11.3km/h 82% 0.00in /  0mm 0.0 W/m2
01:25 65.7 °F /  18.7 °C 60.1 °F /  15.6 °C 29.70in /  1005.6hPa Calm   6.0mph /  9.7km/h 82% 0.00in /  0mm 0.0 W/m2
01:31 65.7 °F /  18.7 °C 60.4 °F /  15.8 °C 29.70in /  1005.6hPa SE 4.9mph /  7.9km/h 5.0mph /  8km/h 83% 0.00in /  0mm 0.0 W/m2
01:36 65.7 °F /  18.7 °C 60.4 °F /  15.8 °C 29.70in /  1005.6hPa Calm   5.0mph /  8km/h 83% 0.00in /  0mm 0.0 W/m2
01:38 65.7 °F /  18.7 °C 60.4 °F /  15.8 °C 29.70in /  1005.6hPa ESE 4.0mph /  6.4km/h 8.0mph /  12.9km/h 83% 0.00in /  0mm 0.0 W/m2
01:43 65.7 °F /  18.7 °C 60.4 °F /  15.8 °C 29.70in /  1005.6hPa SE 4.9mph /  7.9km/h 11.0mph /  17.7km/h 83% 0.00in /  0mm 0.0 W/m2
01:48 65.7 °F /  18.7 °C 60.4 °F /  15.8 °C 29.70in /  1005.6hPa NNE 0.9mph /  1.4km/h 10.0mph /  16.1km/h 83% 0.00in /  0mm 0.0 W/m2
01:54 65.7 °F /  18.7 °C 60.4 °F /  15.8 °C 29.69in /  1005.3hPa East 2.0mph /  3.2km/h 7.0mph /  11.3km/h 83% 0.00in /  0mm 0.0 W/m2
01:59 65.7 °F /  18.7 °C 60.4 °F /  15.8 °C 29.69in /  1005.3hPa East 2.0mph /  3.2km/h 6.0mph /  9.7km/h 83% 0.00in /  0mm 0.0 W/m2
02:04 65.5 °F /  18.6 °C 60.3 °F /  15.7 °C 29.69in /  1005.3hPa Calm   8.0mph /  12.9km/h 83% 0.00in /  0mm 0.0 W/m2
02:09 65.5 °F /  18.6 °C 60.4 °F /  15.8 °C 29.69in /  1005.3hPa East 2.0mph /  3.2km/h 7.0mph /  11.3km/h 84% 0.00in /  0mm 0.0 W/m2
02:14 65.5 °F /  18.6 °C 60.3 °F /  15.7 °C 29.69in /  1005.3hPa NE 0.9mph /  1.4km/h 8.0mph /  12.9km/h 83% 0.00in /  0mm 0.0 W/m2
02:19 65.5 °F /  18.6 °C 60.4 °F /  15.8 °C 29.69in /  1005.3hPa NE 4.0mph /  6.4km/h 7.0mph /  11.3km/h 84% 0.00in /  0mm 0.0 W/m2
02:24 65.5 °F /  18.6 °C 60.4 °F /  15.8 °C 29.69in /  1005.3hPa East 2.9mph /  4.7km/h 5.0mph /  8km/h 84% 0.00in /  0mm 0.0 W/m2
02:30 65.3 °F /  18.5 °C 60.3 °F /  15.7 °C 29.69in /  1005.3hPa Calm   3.0mph /  4.8km/h 84% 0.00in /  0mm 0.0 W/m2
02:35 65.3 °F /  18.5 °C 60.3 °F /  15.7 °C 29.69in /  1005.3hPa ESE 4.0mph /  6.4km/h 8.0mph /  12.9km/h 84% 0.00in /  0mm 0.0 W/m2
02:40 65.3 °F /  18.5 °C 60.3 °F /  15.7 °C 29.68in /  1005hPa NE 4.0mph /  6.4km/h 7.0mph /  11.3km/h 84% 0.00in /  0mm 0.0 W/m2
02:42 65.3 °F /  18.5 °C 60.3 °F /  15.7 °C 29.68in /  1005hPa Calm   5.0mph /  8km/h 84% 0.00in /  0mm 0.0 W/m2
02:47 65.3 °F /  18.5 °C 60.3 °F /  15.7 °C 29.69in /  1005.3hPa East 0.9mph /  1.4km/h 4.0mph /  6.4km/h 84% 0.00in /  0mm 0.0 W/m2
02:52 65.3 °F /  18.5 °C 60.3 °F /  15.7 °C 29.69in /  1005.3hPa ESE 0.9mph /  1.4km/h 6.0mph /  9.7km/h 84% 0.00in /  0mm 0.0 W/m2
02:57 65.3 °F /  18.5 °C 60.1 °F /  15.6 °C 29.68in /  1005hPa Calm   5.0mph /  8km/h 83% 0.00in /  0mm 0.0 W/m2
03:01 65.3 °F /  18.5 °C 60.3 °F /  15.7 °C 29.68in /  1005hPa NNE 2.0mph /  3.2km/h 5.0mph /  8km/h 84% 0.00in /  0mm 0.0 W/m2
03:06 65.3 °F /  18.5 °C 60.3 °F /  15.7 °C 29.69in /  1005.3hPa ENE 2.0mph /  3.2km/h 6.0mph /  9.7km/h 84% 0.00in /  0mm 0.0 W/m2
03:08 65.3 °F /  18.5 °C 60.3 °F /  15.7 °C 29.69in /  1005.3hPa Calm   3.0mph /  4.8km/h 84% 0.00in /  0mm 0.0 W/m2
03:13 65.3 °F /  18.5 °C 60.1 °F /  15.6 °C 30.15in /  1020.9hPa Calm   2.0mph /  3.2km/h 83% 0.00in /  0mm 0.0 W/m2
03:18 65.1 °F /  18.4 °C 59.9 °F /  15.5 °C 30.14in /  1020.5hPa NE 2.0mph /  3.2km/h 5.0mph /  8km/h 83% 0.00in /  0mm 0.0 W/m2
03:24 65.1 °F /  18.4 °C 59.9 °F /  15.5 °C 30.14in /  1020.5hPa Calm   4.0mph /  6.4km/h 83% 0.00in /  0mm 0.0 W/m2
03:25 65.1 °F /  18.4 °C 59.9 °F /  15.5 °C 30.14in /  1020.5hPa Calm   3.0mph /  4.8km/h 83% 0.00in /  0mm 0.0 W/m2
03:30 65.1 °F /  18.4 °C 59.9 °F /  15.5 °C 30.14in /  1020.5hPa Calm   1.0mph /  1.6km/h 83% 0.00in /  0mm 0.0 W/m2
03:35 64.9 °F /  18.3 °C 59.7 °F /  15.4 °C 30.13in /  1020.2hPa ESE 2.0mph /  3.2km/h 6.0mph /  9.7km/h 83% 0.00in /  0mm 0.0 W/m2
03:39 64.8 °F /  18.2 °C 59.5 °F /  15.3 °C 30.13in /  1020.2hPa Calm   4.0mph /  6.4km/h 83% 0.00in /  0mm 0.0 W/m2
03:44 64.8 °F /  18.2 °C 59.5 °F /  15.3 °C 30.13in /  1020.2hPa East 2.0mph /  3.2km/h 5.0mph /  8km/h 83% 0.00in /  0mm 0.0 W/m2
03:49 64.8 °F /  18.2 °C 59.5 °F /  15.3 °C 30.13in /  1020.2hPa Calm   2.0mph /  3.2km/h 83% 0.00in /  0mm 0.0 W/m2
03:54 64.6 °F /  18.1 °C 59.7 °F /  15.4 °C 30.13in /  1020.2hPa ENE 0.9mph /  1.4km/h 4.0mph /  6.4km/h 84% 0.00in /  0mm 0.0 W/m2
03:59 64.6 °F /  18.1 °C 59.7 °F /  15.4 °C 30.13in /  1020.2hPa East 0.9mph /  1.4km/h 4.0mph /  6.4km/h 84% 0.00in /  0mm 0.0 W/m2
04:04 64.4 °F /  18 °C 59.5 °F /  15.3 °C 30.13in /  1020.2hPa ENE 0.9mph /  1.4km/h 4.0mph /  6.4km/h 84% 0.00in /  0mm 0.0 W/m2
04:10 64.4 °F /  18 °C 59.5 °F /  15.3 °C 30.13in /  1020.2hPa ENE 2.0mph /  3.2km/h 7.0mph /  11.3km/h 84% 0.00in /  0mm 0.0 W/m2
04:15 64.2 °F /  17.9 °C 59.4 °F /  15.2 °C 30.13in /  1020.2hPa East 2.9mph /  4.7km/h 6.0mph /  9.7km/h 84% 0.00in /  0mm 0.0 W/m2
04:20 64.2 °F /  17.9 °C 59.4 °F /  15.2 °C 30.13in /  1020.2hPa NNE 6.0mph /  9.7km/h 6.0mph /  9.7km/h 84% 0.00in /  0mm 0.0 W/m2
04:24 64.2 °F /  17.9 °C 59.5 °F /  15.3 °C 30.13in /  1020.2hPa NE 4.9mph /  7.9km/h 5.0mph /  8km/h 85% 0.00in /  0mm 0.0 W/m2
04:29 64.2 °F /  17.9 °C 59.5 °F /  15.3 °C 30.13in /  1020.2hPa ENE 2.0mph /  3.2km/h 5.0mph /  8km/h 85% 0.00in /  0mm 0.0 W/m2
04:34 64.2 °F /  17.9 °C 59.5 °F /  15.3 °C 30.13in /  1020.2hPa ENE 0.9mph /  1.4km/h 3.0mph /  4.8km/h 85% 0.00in /  0mm 0.0 W/m2
04:39 64.4 °F /  18 °C 59.7 °F /  15.4 °C 30.13in /  1020.2hPa Calm   3.0mph /  4.8km/h 85% 0.00in /  0mm 0.0 W/m2
04:44 64.2 °F /  17.9 °C 59.5 °F /  15.3 °C 30.13in /  1020.2hPa Calm   1.0mph /  1.6km/h 85% 0.00in /  0mm 0.0 W/m2
04:49 64.2 °F /  17.9 °C 59.5 °F /  15.3 °C 30.13in /  1020.2hPa ENE 0.9mph /  1.4km/h 2.0mph /  3.2km/h 85% 0.00in /  0mm 0.0 W/m2
04:54 64.2 °F /  17.9 °C 59.4 °F /  15.2 °C 30.13in /  1020.2hPa Calm   3.0mph /  4.8km/h 84% 0.00in /  0mm 0.0 W/m2
05:00 64.2 °F /  17.9 °C 59.4 °F /  15.2 °C 30.14in /  1020.5hPa Calm   4.0mph /  6.4km/h 84% 0.00in /  0mm 0.0 W/m2
05:01 64.2 °F /  17.9 °C 59.4 °F /  15.2 °C 30.14in /  1020.5hPa NE 2.0mph /  3.2km/h 6.0mph /  9.7km/h 84% 0.00in /  0mm 0.0 W/m2
05:06 64.2 °F /  17.9 °C 59.4 °F /  15.2 °C 30.14in /  1020.5hPa East 0.9mph /  1.4km/h 1.0mph /  1.6km/h 84% 0.00in /  0mm 0.0 W/m2
05:13 64.0 °F /  17.8 °C 58.5 °F /  14.7 °C 30.14in /  1020.5hPa Calm   3.0mph /  4.8km/h 82% 0.00in /  0mm 0.0 W/m2
05:19 63.9 °F /  17.7 °C 58.3 °F /  14.6 °C 30.14in /  1020.5hPa ENE 2.9mph /  4.7km/h 3.0mph /  4.8km/h 82% 0.00in /  0mm 0.0 W/m2
05:23 63.9 °F /  17.7 °C 58.3 °F /  14.6 °C 30.14in /  1020.5hPa ESE 0.9mph /  1.4km/h 2.0mph /  3.2km/h 82% 0.00in /  0mm 0.0 W/m2
05:29 63.9 °F /  17.7 °C 57.6 °F /  14.2 °C 30.14in /  1020.5hPa Calm   4.0mph /  6.4km/h 80% 0.00in /  0mm 0.0 W/m2
05:35 63.7 °F /  17.6 °C 57.4 °F /  14.1 °C 30.14in /  1020.5hPa ESE 0.9mph /  1.4km/h 5.0mph /  8km/h 80% 0.00in /  0mm 0.0 W/m2
05:40 63.7 °F /  17.6 °C 57.0 °F /  13.9 °C 30.14in /  1020.5hPa Calm   4.0mph /  6.4km/h 79% 0.00in /  0mm 0.0 W/m2
05:45 63.7 °F /  17.6 °C 57.0 °F /  13.9 °C 30.15in /  1020.9hPa NE 0.9mph /  1.4km/h 3.0mph /  4.8km/h 79% 0.00in /  0mm 0.0 W/m2
05:46 63.7 °F /  17.6 °C 57.0 °F /  13.9 °C 30.15in /  1020.9hPa NNE 0.9mph /  1.4km/h 3.0mph /  4.8km/h 79% 0.00in /  0mm 0.0 W/m2
05:52 63.9 °F /  17.7 °C 57.2 °F /  14 °C 30.16in /  1021.2hPa NE 6.0mph /  9.7km/h 9.0mph /  14.5km/h 79% 0.00in /  0mm 0.0 W/m2
05:55 63.9 °F /  17.7 °C 57.6 °F /  14.2 °C 30.16in /  1021.2hPa ENE 2.9mph /  4.7km/h 8.0mph /  12.9km/h 80% 0.00in /  0mm 0.0 W/m2
06:00 63.9 °F /  17.7 °C 58.3 °F /  14.6 °C 30.16in /  1021.2hPa NNE 6.9mph /  11.1km/h 11.0mph /  17.7km/h 82% 0.00in /  0mm 0.0 W/m2
06:03 63.9 °F /  17.7 °C 58.6 °F /  14.8 °C 30.17in /  1021.6hPa North 4.0mph /  6.4km/h 10.0mph /  16.1km/h 83% 0.00in /  0mm 0.0 W/m2
06:09 63.9 °F /  17.7 °C 59.0 °F /  15 °C 30.17in /  1021.6hPa East 2.9mph /  4.7km/h 6.0mph /  9.7km/h 84% 0.00in /  0mm 5.0 W/m2
06:10 63.9 °F /  17.7 °C 59.0 °F /  15 °C 30.17in /  1021.6hPa ENE 0.9mph /  1.4km/h 6.0mph /  9.7km/h 84% 0.00in /  0mm 5.0 W/m2
06:12 63.9 °F /  17.7 °C 59.0 °F /  15 °C 30.17in /  1021.6hPa Calm   5.0mph /  8km/h 84% 0.00in /  0mm 7.0 W/m2
06:16 63.9 °F /  17.7 °C 59.2 °F /  15.1 °C 30.17in /  1021.6hPa North 0.9mph /  1.4km/h 4.0mph /  6.4km/h 85% 0.00in /  0mm 11.0 W/m2
06:22 63.7 °F /  17.6 °C 59.0 °F /  15 °C 30.17in /  1021.6hPa Calm   4.0mph /  6.4km/h 85% 0.00in /  0mm 14.0 W/m2
06:23 63.7 °F /  17.6 °C 59.0 °F /  15 °C 30.17in /  1021.6hPa NNE 0.9mph /  1.4km/h 2.0mph /  3.2km/h 85% 0.00in /  0mm 14.0 W/m2
06:28 63.7 °F /  17.6 °C 59.0 °F /  15 °C 30.17in /  1021.6hPa Calm   3.0mph /  4.8km/h 85% 0.00in /  0mm 18.0 W/m2
06:33 63.7 °F /  17.6 °C 59.0 °F /  15 °C 30.18in /  1021.9hPa Calm   1.0mph /  1.6km/h 85% 0.00in /  0mm 19.0 W/m2
06:39 63.7 °F /  17.6 °C 59.0 °F /  15 °C 30.18in /  1021.9hPa Calm   2.0mph /  3.2km/h 85% 0.00in /  0mm 21.0 W/m2
06:44 63.5 °F /  17.5 °C 58.8 °F /  14.9 °C 30.18in /  1021.9hPa East 0.9mph /  1.4km/h 2.0mph /  3.2km/h 85% 0.00in /  0mm 23.0 W/m2
06:49 63.5 °F /  17.5 °C 58.8 °F /  14.9 °C 30.18in /  1021.9hPa Calm   1.0mph /  1.6km/h 85% 0.00in /  0mm 25.0 W/m2
06:55 63.5 °F /  17.5 °C 58.8 °F /  14.9 °C 30.18in /  1021.9hPa NE 0.9mph /  1.4km/h 3.0mph /  4.8km/h 85% 0.00in /  0mm 28.0 W/m2
06:56 63.5 °F /  17.5 °C 58.8 °F /  14.9 °C 30.18in /  1021.9hPa Calm   2.0mph /  3.2km/h 85% 0.00in /  0mm 28.0 W/m2
07:02 63.7 °F /  17.6 °C 58.8 °F /  14.9 °C 30.19in /  1022.2hPa NE 0.9mph /  1.4km/h 2.0mph /  3.2km/h 84% 0.00in /  0mm 30.0 W/m2
07:07 63.7 °F /  17.6 °C 58.8 °F /  14.9 °C 30.19in /  1022.2hPa Calm   1.0mph /  1.6km/h 84% 0.00in /  0mm 32.0 W/m2
07:12 63.9 °F /  17.7 °C 58.6 °F /  14.8 °C 30.19in /  1022.2hPa Calm   1.0mph /  1.6km/h 83% 0.00in /  0mm 33.0 W/m2
07:14 63.9 °F /  17.7 °C 58.6 °F /  14.8 °C 30.19in /  1022.2hPa NE 0.9mph /  1.4km/h 3.0mph /  4.8km/h 83% 0.00in /  0mm 33.0 W/m2
07:20 64.0 °F /  17.8 °C 58.8 °F /  14.9 °C 30.19in /  1022.2hPa Calm   1.0mph /  1.6km/h 83% 0.00in /  0mm 37.0 W/m2
07:25 64.0 °F /  17.8 °C 58.8 °F /  14.9 °C 30.19in /  1022.2hPa Calm   1.0mph /  1.6km/h 83% 0.00in /  0mm 40.0 W/m2
07:30 64.2 °F /  17.9 °C 59.0 °F /  15 °C 30.19in /  1022.2hPa East 0.9mph /  1.4km/h 1.0mph /  1.6km/h 83% 0.00in /  0mm 33.0 W/m2
07:36 64.2 °F /  17.9 °C 59.0 °F /  15 °C 30.19in /  1022.2hPa Calm   1.0mph /  1.6km/h 83% 0.00in /  0mm 33.0 W/m2
07:41 64.2 °F /  17.9 °C 58.6 °F /  14.8 °C 30.19in /  1022.2hPa Calm     82% 0.00in /  0mm 40.0 W/m2
07:46 64.4 °F /  18 °C 58.8 °F /  14.9 °C 30.19in /  1022.2hPa Calm   2.0mph /  3.2km/h 82% 0.00in /  0mm 56.0 W/m2
07:51 64.6 °F /  18.1 °C 59.0 °F /  15 °C 30.20in /  1022.6hPa Calm   4.0mph /  6.4km/h 82% 0.00in /  0mm 118.0 W/m2
07:56 64.8 °F /  18.2 °C 58.8 °F /  14.9 °C 30.20in /  1022.6hPa Calm   4.0mph /  6.4km/h 81% 0.00in /  0mm 204.0 W/m2
08:01 65.1 °F /  18.4 °C 59.2 °F /  15.1 °C 30.20in /  1022.6hPa ESE 2.9mph /  4.7km/h 3.0mph /  4.8km/h 81% 0.00in /  0mm 162.0 W/m2
08:03 65.3 °F /  18.5 °C 59.4 °F /  15.2 °C 30.20in /  1022.6hPa NNE 2.9mph /  4.7km/h 4.0mph /  6.4km/h 81% 0.00in /  0mm 401.0 W/m2
08:09 65.8 °F /  18.8 °C 59.2 °F /  15.1 °C 30.20in /  1022.6hPa East 2.9mph /  4.7km/h 4.0mph /  6.4km/h 79% 0.00in /  0mm 227.0 W/m2
08:15 66.6 °F /  19.2 °C 59.5 °F /  15.3 °C 30.19in /  1022.2hPa Calm   3.0mph /  4.8km/h 78% 0.00in /  0mm 195.0 W/m2
08:17 66.7 °F /  19.3 °C 59.7 °F /  15.4 °C 30.19in /  1022.2hPa ENE 0.9mph /  1.4km/h 4.0mph /  6.4km/h 78% 0.00in /  0mm 221.0 W/m2
08:22 67.5 °F /  19.7 °C 59.5 °F /  15.3 °C 30.19in /  1022.2hPa North 0.9mph /  1.4km/h 3.0mph /  4.8km/h 76% 0.00in /  0mm 540.0 W/m2
08:27 68.2 °F /  20.1 °C 59.2 °F /  15.1 °C 30.19in /  1022.2hPa North 2.0mph /  3.2km/h 4.0mph /  6.4km/h 73% 0.00in /  0mm 422.0 W/m2
08:32 68.9 °F /  20.5 °C 59.2 °F /  15.1 °C 30.19in /  1022.2hPa NE 4.0mph /  6.4km/h 5.0mph /  8km/h 71% 0.00in /  0mm 621.0 W/m2
08:37 69.4 °F /  20.8 °C 59.5 °F /  15.3 °C 30.19in /  1022.2hPa North 0.9mph /  1.4km/h 4.0mph /  6.4km/h 71% 0.00in /  0mm 179.0 W/m2
08:42 69.6 °F /  20.9 °C 59.7 °F /  15.4 °C 30.19in /  1022.2hPa ESE 2.9mph /  4.7km/h 4.0mph /  6.4km/h 71% 0.00in /  0mm 276.0 W/m2
08:43 69.4 °F /  20.8 °C 59.5 °F /  15.3 °C 30.19in /  1022.2hPa North 0.9mph /  1.4km/h 3.0mph /  4.8km/h 71% 0.00in /  0mm 176.0 W/m2
08:49 69.6 °F /  20.9 °C 59.4 °F /  15.2 °C 30.19in /  1022.2hPa ENE 4.0mph /  6.4km/h 5.0mph /  8km/h 70% 0.00in /  0mm 251.0 W/m2
08:50 69.6 °F /  20.9 °C 59.4 °F /  15.2 °C 30.19in /  1022.2hPa ENE 2.0mph /  3.2km/h 5.0mph /  8km/h 70% 0.00in /  0mm 255.0 W/m2
08:56 69.8 °F /  21 °C 59.5 °F /  15.3 °C 30.19in /  1022.2hPa NE 0.9mph /  1.4km/h 4.0mph /  6.4km/h 70% 0.00in /  0mm 278.0 W/m2
08:59 70.0 °F /  21.1 °C 59.4 °F /  15.2 °C 30.19in /  1022.2hPa ENE 2.0mph /  3.2km/h 4.0mph /  6.4km/h 69% 0.00in /  0mm 290.0 W/m2
09:05 70.0 °F /  21.1 °C 59.7 °F /  15.4 °C 30.19in /  1022.2hPa NNE 2.0mph /  3.2km/h 3.0mph /  4.8km/h 70% 0.00in /  0mm 345.0 W/m2
09:07 70.0 °F /  21.1 °C 59.4 °F /  15.2 °C 30.19in /  1022.2hPa East 2.9mph /  4.7km/h 4.0mph /  6.4km/h 69% 0.00in /  0mm 371.0 W/m2
09:12 70.3 °F /  21.3 °C 58.8 °F /  14.9 °C 30.18in /  1021.9hPa ENE 2.9mph /  4.7km/h 3.0mph /  4.8km/h 67% 0.00in /  0mm 334.0 W/m2
09:13 70.3 °F /  21.3 °C 58.5 °F /  14.7 °C 30.18in /  1021.9hPa NE 2.9mph /  4.7km/h 5.0mph /  8km/h 66% 0.00in /  0mm 367.0 W/m2
09:18 70.9 °F /  21.6 °C 58.5 °F /  14.7 °C 30.18in /  1021.9hPa Calm   4.0mph /  6.4km/h 65% 0.00in /  0mm 814.0 W/m2
09:23 71.8 °F /  22.1 °C 58.5 °F /  14.7 °C 30.18in /  1021.9hPa Calm   4.0mph /  6.4km/h 63% 0.00in /  0mm 717.0 W/m2
09:28 72.5 °F /  22.5 °C 58.3 °F /  14.6 °C 30.18in /  1021.9hPa ENE 2.0mph /  3.2km/h 5.0mph /  8km/h 61% 0.00in /  0mm 687.0 W/m2
09:33 73.0 °F /  22.8 °C 58.8 °F /  14.9 °C 30.18in /  1021.9hPa ESE 4.0mph /  6.4km/h 6.0mph /  9.7km/h 61% 0.00in /  0mm 726.0 W/m2
09:40 73.8 °F /  23.2 °C 58.1 °F /  14.5 °C 30.18in /  1021.9hPa NE 6.0mph /  9.7km/h 7.0mph /  11.3km/h 58% 0.00in /  0mm 875.0 W/m2
09:46 74.7 °F /  23.7 °C 57.4 °F /  14.1 °C 30.18in /  1021.9hPa Calm   4.0mph /  6.4km/h 55% 0.00in /  0mm 517.0 W/m2
09:48 74.7 °F /  23.7 °C 57.9 °F /  14.4 °C 30.18in /  1021.9hPa ENE 0.9mph /  1.4km/h 2.0mph /  3.2km/h 56% 0.00in /  0mm 566.0 W/m2
09:54 75.0 °F /  23.9 °C 57.7 °F /  14.3 °C 30.18in /  1021.9hPa East 4.0mph /  6.4km/h 8.0mph /  12.9km/h 55% 0.00in /  0mm 589.0 W/m2
09:59 75.4 °F /  24.1 °C 57.6 °F /  14.2 °C 30.18in /  1021.9hPa North 2.9mph /  4.7km/h 5.0mph /  8km/h 54% 0.00in /  0mm 519.0 W/m2
10:04 75.7 °F /  24.3 °C 57.9 °F /  14.4 °C 30.18in /  1021.9hPa NNW 2.0mph /  3.2km/h 5.0mph /  8km/h 54% 0.00in /  0mm 432.0 W/m2
10:09 75.9 °F /  24.4 °C 58.1 °F /  14.5 °C 30.18in /  1021.9hPa NNE 4.9mph /  7.9km/h 5.0mph /  8km/h 54% 0.00in /  0mm 418.0 W/m2
10:10 75.9 °F /  24.4 °C 58.6 °F /  14.8 °C 30.18in /  1021.9hPa NE 2.9mph /  4.7km/h 5.0mph /  8km/h 55% 0.00in /  0mm 494.0 W/m2
10:15 75.9 °F /  24.4 °C 57.6 °F /  14.2 °C 30.18in /  1021.9hPa NNW 2.0mph /  3.2km/h 3.0mph /  4.8km/h 53% 0.00in /  0mm 439.0 W/m2
10:20 76.3 °F /  24.6 °C 57.9 °F /  14.4 °C 30.18in /  1021.9hPa Calm   5.0mph /  8km/h 53% 0.00in /  0mm 1113.0 W/m2
10:25 77.0 °F /  25 °C 58.1 °F /  14.5 °C 30.18in /  1021.9hPa NNE 2.9mph /  4.7km/h 8.0mph /  12.9km/h 52% 0.00in /  0mm 1049.0 W/m2
10:28 77.4 °F /  25.2 °C 57.7 °F /  14.3 °C 30.18in /  1021.9hPa ENE 2.9mph /  4.7km/h 7.0mph /  11.3km/h 51% 0.00in /  0mm 1095.0 W/m2
10:34 77.9 °F /  25.5 °C 57.7 °F /  14.3 °C 30.18in /  1021.9hPa Calm   1.0mph /  1.6km/h 50% 0.00in /  0mm 499.0 W/m2
10:39 78.3 °F /  25.7 °C 56.3 °F /  13.5 °C 30.18in /  1021.9hPa NNW 0.9mph /  1.4km/h 11.0mph /  17.7km/h 47% 0.00in /  0mm 592.0 W/m2
10:45 79.0 °F /  26.1 °C 56.5 °F /  13.6 °C 30.18in /  1021.9hPa Calm   4.0mph /  6.4km/h 46% 0.00in /  0mm 939.0 W/m2
10:50 79.7 °F /  26.5 °C 58.3 °F /  14.6 °C 30.18in /  1021.9hPa NNW 0.9mph /  1.4km/h 4.0mph /  6.4km/h 48% 0.00in /  0mm 638.0 W/m2
10:53 79.9 °F /  26.6 °C 57.9 °F /  14.4 °C 30.18in /  1021.9hPa East 0.9mph /  1.4km/h 5.0mph /  8km/h 47% 0.00in /  0mm 577.0 W/m2
10:59 79.9 °F /  26.6 °C 57.9 °F /  14.4 °C 30.18in /  1021.9hPa NNW 2.9mph /  4.7km/h 3.0mph /  4.8km/h 47% 0.00in /  0mm 513.0 W/m2
11:04 79.9 °F /  26.6 °C 57.2 °F /  14 °C 30.18in /  1021.9hPa NNE 2.9mph /  4.7km/h 5.0mph /  8km/h 46% 0.00in /  0mm 519.0 W/m2
11:10 79.9 °F /  26.6 °C 57.9 °F /  14.4 °C 30.18in /  1021.9hPa Calm   3.0mph /  4.8km/h 47% 0.00in /  0mm 540.0 W/m2
11:15 79.9 °F /  26.6 °C 56.7 °F /  13.7 °C 30.18in /  1021.9hPa NNW 2.0mph /  3.2km/h 5.0mph /  8km/h 45% 0.00in /  0mm 468.0 W/m2
11:21 79.7 °F /  26.5 °C 57.0 °F /  13.9 °C 30.18in /  1021.9hPa Calm   2.0mph /  3.2km/h 46% 0.00in /  0mm 475.0 W/m2
11:24 79.7 °F /  26.5 °C 56.5 °F /  13.6 °C 30.18in /  1021.9hPa WSW 2.0mph /  3.2km/h 4.0mph /  6.4km/h 45% 0.00in /  0mm 496.0 W/m2
11:30 79.7 °F /  26.5 °C 56.5 °F /  13.6 °C 30.18in /  1021.9hPa Calm   5.0mph /  8km/h 45% 0.00in /  0mm 469.0 W/m2
11:35 79.9 °F /  26.6 °C 56.7 °F /  13.7 °C 30.19in /  1022.2hPa West 0.9mph /  1.4km/h 7.0mph /  11.3km/h 45% 0.00in /  0mm 487.0 W/m2
11:38 79.9 °F /  26.6 °C 56.7 °F /  13.7 °C 30.19in /  1022.2hPa WNW 0.9mph /  1.4km/h 3.0mph /  4.8km/h 45% 0.00in /  0mm 492.0 W/m2
11:45 80.2 °F /  26.8 °C 56.3 °F /  13.5 °C 30.18in /  1021.9hPa Calm   3.0mph /  4.8km/h 44% 0.00in /  0mm 536.0 W/m2
11:50 80.4 °F /  26.9 °C 56.5 °F /  13.6 °C 30.18in /  1021.9hPa WNW 2.0mph /  3.2km/h 3.0mph /  4.8km/h 44% 0.00in /  0mm 657.0 W/m2
11:55 80.8 °F /  27.1 °C 56.1 °F /  13.4 °C 30.18in /  1021.9hPa Calm   5.0mph /  8km/h 43% 0.00in /  0mm 747.0 W/m2
12:00 81.1 °F /  27.3 °C 55.2 °F /  12.9 °C 30.18in /  1021.9hPa Calm   2.0mph /  3.2km/h 41% 0.00in /  0mm 594.0 W/m2
12:06 81.3 °F /  27.4 °C 55.4 °F /  13 °C 30.18in /  1021.9hPa SE 2.0mph /  3.2km/h 5.0mph /  8km/h 41% 0.00in /  0mm 512.0 W/m2
12:11 81.7 °F /  27.6 °C 55.8 °F /  13.2 °C 30.18in /  1021.9hPa Calm   4.0mph /  6.4km/h 41% 0.00in /  0mm 533.0 W/m2
12:16 81.9 °F /  27.7 °C 55.9 °F /  13.3 °C 30.18in /  1021.9hPa North 6.0mph /  9.7km/h 6.0mph /  9.7km/h 41% 0.00in /  0mm 598.0 W/m2
12:20 82.0 °F /  27.8 °C 55.4 °F /  13 °C 30.18in /  1021.9hPa NNE 2.0mph /  3.2km/h 7.0mph /  11.3km/h 40% 0.00in /  0mm 621.0 W/m2
12:26 82.0 °F /  27.8 °C 55.9 °F /  13.3 °C 30.18in /  1021.9hPa WNW 2.0mph /  3.2km/h 6.0mph /  9.7km/h 41% 0.00in /  0mm 1013.0 W/m2
12:31 82.9 °F /  28.3 °C 56.1 °F /  13.4 °C 30.18in /  1021.9hPa WSW 2.0mph /  3.2km/h 4.0mph /  6.4km/h 40% 0.00in /  0mm 1028.0 W/m2
12:36 83.3 °F /  28.5 °C 56.5 °F /  13.6 °C 30.18in /  1021.9hPa NNW 2.0mph /  3.2km/h 6.0mph /  9.7km/h 40% 0.00in /  0mm 404.0 W/m2
12:41 83.5 °F /  28.6 °C 55.9 °F /  13.3 °C 30.18in /  1021.9hPa North 2.9mph /  4.7km/h 3.0mph /  4.8km/h 39% 0.00in /  0mm 624.0 W/m2
12:46 83.7 °F /  28.7 °C 56.8 °F /  13.8 °C 30.17in /  1021.6hPa NNW 6.0mph /  9.7km/h 11.0mph /  17.7km/h 40% 0.00in /  0mm 534.0 W/m2
12:51 83.5 °F /  28.6 °C 56.7 °F /  13.7 °C 30.17in /  1021.6hPa NE 2.0mph /  3.2km/h 5.0mph /  8km/h 40% 0.00in /  0mm 615.0 W/m2
12:55 83.5 °F /  28.6 °C 56.7 °F /  13.7 °C 30.17in /  1021.6hPa NW 4.9mph /  7.9km/h 8.0mph /  12.9km/h 40% 0.00in /  0mm 443.0 W/m2
12:57 83.5 °F /  28.6 °C 57.4 °F /  14.1 °C 30.17in /  1021.6hPa Calm   5.0mph /  8km/h 41% 0.00in /  0mm 415.0 W/m2
13:01 83.1 °F /  28.4 °C 56.3 °F /  13.5 °C 30.17in /  1021.6hPa North 0.9mph /  1.4km/h 6.0mph /  9.7km/h 40% 0.00in /  0mm 394.0 W/m2
13:07 82.8 °F /  28.2 °C 55.9 °F /  13.3 °C 30.17in /  1021.6hPa Calm   8.0mph /  12.9km/h 40% 0.00in /  0mm 468.0 W/m2
13:08 82.8 °F /  28.2 °C 55.9 °F /  13.3 °C 30.17in /  1021.6hPa ENE 4.0mph /  6.4km/h 13.0mph /  20.9km/h 40% 0.00in /  0mm 429.0 W/m2
13:13 82.6 °F /  28.1 °C 55.8 °F /  13.2 °C 30.16in /  1021.2hPa NE 0.9mph /  1.4km/h 9.0mph /  14.5km/h 40% 0.00in /  0mm 436.0 W/m2
13:18 82.0 °F /  27.8 °C 55.4 °F /  13 °C 30.16in /  1021.2hPa NE 2.9mph /  4.7km/h 8.0mph /  12.9km/h 40% 0.00in /  0mm 466.0 W/m2
13:23 81.9 °F /  27.7 °C 55.2 °F /  12.9 °C 30.16in /  1021.2hPa North 4.9mph /  7.9km/h 9.0mph /  14.5km/h 40% 0.00in /  0mm 436.0 W/m2
13:27 81.7 °F /  27.6 °C 55.0 °F /  12.8 °C 30.17in /  1021.6hPa ENE 4.0mph /  6.4km/h 7.0mph /  11.3km/h 40% 0.00in /  0mm 388.0 W/m2
13:32 81.7 °F /  27.6 °C 55.0 °F /  12.8 °C 30.16in /  1021.2hPa ENE 2.0mph /  3.2km/h 4.0mph /  6.4km/h 40% 0.00in /  0mm 338.0 W/m2
13:37 81.3 °F /  27.4 °C 55.4 °F /  13 °C 30.16in /  1021.2hPa NNE 6.9mph /  11.1km/h 12.0mph /  19.3km/h 41% 0.00in /  0mm 313.0 W/m2
13:42 81.3 °F /  27.4 °C 54.7 °F /  12.6 °C 30.16in /  1021.2hPa SE 4.9mph /  7.9km/h 5.0mph /  8km/h 40% 0.00in /  0mm 290.0 W/m2
13:48 81.3 °F /  27.4 °C 55.4 °F /  13 °C 30.16in /  1021.2hPa East 0.9mph /  1.4km/h 5.0mph /  8km/h 41% 0.00in /  0mm 278.0 W/m2
13:49 81.3 °F /  27.4 °C 55.4 °F /  13 °C 30.16in /  1021.2hPa ENE 4.9mph /  7.9km/h 7.0mph /  11.3km/h 41% 0.00in /  0mm 278.0 W/m2
13:54 81.1 °F /  27.3 °C 55.2 °F /  12.9 °C 30.16in /  1021.2hPa NNE 2.0mph /  3.2km/h 4.0mph /  6.4km/h 41% 0.00in /  0mm 287.0 W/m2
13:59 81.1 °F /  27.3 °C 55.2 °F /  12.9 °C 30.15in /  1020.9hPa NE 2.9mph /  4.7km/h 4.0mph /  6.4km/h 41% 0.00in /  0mm 306.0 W/m2
14:00 81.1 °F /  27.3 °C 55.2 °F /  12.9 °C 30.15in /  1020.9hPa ENE 2.0mph /  3.2km/h 4.0mph /  6.4km/h 41% 0.00in /  0mm 309.0 W/m2
14:05 81.1 °F /  27.3 °C 55.2 °F /  12.9 °C 30.15in /  1020.9hPa Calm   3.0mph /  4.8km/h 41% 0.00in /  0mm 315.0 W/m2
14:10 81.3 °F /  27.4 °C 55.4 °F /  13 °C 30.15in /  1020.9hPa Calm   2.0mph /  3.2km/h 41% 0.00in /  0mm 318.0 W/m2
14:15 81.7 °F /  27.6 °C 55.8 °F /  13.2 °C 30.15in /  1020.9hPa East 0.9mph /  1.4km/h 3.0mph /  4.8km/h 41% 0.00in /  0mm 323.0 W/m2
14:16 81.7 °F /  27.6 °C 55.8 °F /  13.2 °C 30.15in /  1020.9hPa WNW 0.9mph /  1.4km/h 3.0mph /  4.8km/h 41% 0.00in /  0mm 325.0 W/m2
14:19 81.7 °F /  27.6 °C 55.0 °F /  12.8 °C 30.15in /  1020.9hPa NNW 2.0mph /  3.2km/h 5.0mph /  8km/h 40% 0.00in /  0mm 352.0 W/m2
14:24 81.9 °F /  27.7 °C 55.9 °F /  13.3 °C 30.14in /  1020.5hPa Calm   2.0mph /  3.2km/h 41% 0.00in /  0mm 425.0 W/m2
14:30 82.0 °F /  27.8 °C 54.0 °F /  12.2 °C 30.14in /  1020.5hPa Calm   4.0mph /  6.4km/h 38% 0.00in /  0mm 533.0 W/m2
14:33 82.2 °F /  27.9 °C 54.1 °F /  12.3 °C 30.14in /  1020.5hPa NE 6.0mph /  9.7km/h 8.0mph /  12.9km/h 38% 0.00in /  0mm 533.0 W/m2
14:38 82.8 °F /  28.2 °C 53.8 °F /  12.1 °C 30.13in /  1020.2hPa NNW 2.0mph /  3.2km/h 5.0mph /  8km/h 37% 0.00in /  0mm 490.0 W/m2
14:39 82.9 °F /  28.3 °C 53.2 °F /  11.8 °C 30.13in /  1020.2hPa NNW 0.9mph /  1.4km/h 4.0mph /  6.4km/h 36% 0.00in /  0mm 469.0 W/m2
14:43 83.3 °F /  28.5 °C 55.0 °F /  12.8 °C 30.13in /  1020.2hPa West 2.0mph /  3.2km/h 5.0mph /  8km/h 38% 0.00in /  0mm 397.0 W/m2
14:49 83.5 °F /  28.6 °C 55.2 °F /  12.9 °C 30.13in /  1020.2hPa Calm   3.0mph /  4.8km/h 38% 0.00in /  0mm 374.0 W/m2
14:54 83.5 °F /  28.6 °C 55.2 °F /  12.9 °C 30.13in /  1020.2hPa NNW 0.9mph /  1.4km/h 5.0mph /  8km/h 38% 0.00in /  0mm 388.0 W/m2
14:59 83.7 °F /  28.7 °C 54.7 °F /  12.6 °C 30.13in /  1020.2hPa Calm   3.0mph /  4.8km/h 37% 0.00in /  0mm 385.0 W/m2
15:04 83.8 °F /  28.8 °C 55.6 °F /  13.1 °C 30.12in /  1019.9hPa WSW 0.9mph /  1.4km/h 2.0mph /  3.2km/h 38% 0.00in /  0mm 364.0 W/m2
15:09 83.8 °F /  28.8 °C 55.6 °F /  13.1 °C 30.12in /  1019.9hPa NNW 4.0mph /  6.4km/h 5.0mph /  8km/h 38% 0.00in /  0mm 343.0 W/m2
15:14 83.7 °F /  28.7 °C 54.7 °F /  12.6 °C 30.12in /  1019.9hPa NNE 6.0mph /  9.7km/h 7.0mph /  11.3km/h 37% 0.00in /  0mm 338.0 W/m2
15:15 83.7 °F /  28.7 °C 55.4 °F /  13 °C 30.12in /  1019.9hPa NNE 2.0mph /  3.2km/h 7.0mph /  11.3km/h 38% 0.00in /  0mm 341.0 W/m2
15:21 83.5 °F /  28.6 °C 55.2 °F /  12.9 °C 30.12in /  1019.9hPa Calm   3.0mph /  4.8km/h 38% 0.00in /  0mm 353.0 W/m2
15:27 83.7 °F /  28.7 °C 54.7 °F /  12.6 °C 30.12in /  1019.9hPa ENE 0.9mph /  1.4km/h 3.0mph /  4.8km/h 37% 0.00in /  0mm 325.0 W/m2
15:32 83.7 °F /  28.7 °C 54.7 °F /  12.6 °C 30.12in /  1019.9hPa Calm   3.0mph /  4.8km/h 37% 0.00in /  0mm 306.0 W/m2
15:36 83.8 °F /  28.8 °C 54.9 °F /  12.7 °C 30.11in /  1019.5hPa Calm   3.0mph /  4.8km/h 37% 0.00in /  0mm 341.0 W/m2
15:38 83.8 °F /  28.8 °C 55.6 °F /  13.1 °C 30.11in /  1019.5hPa Calm   1.0mph /  1.6km/h 38% 0.00in /  0mm 297.0 W/m2
15:43 83.7 °F /  28.7 °C 56.1 °F /  13.4 °C 30.11in /  1019.5hPa NNW 6.0mph /  9.7km/h 10.0mph /  16.1km/h 39% 0.00in /  0mm 251.0 W/m2
15:48 83.1 °F /  28.4 °C 55.6 °F /  13.1 °C 30.11in /  1019.5hPa North 2.0mph /  3.2km/h 10.0mph /  16.1km/h 39% 0.00in /  0mm 229.0 W/m2
15:53 82.8 °F /  28.2 °C 55.9 °F /  13.3 °C 30.11in /  1019.5hPa NNW 0.9mph /  1.4km/h 9.0mph /  14.5km/h 40% 0.00in /  0mm 225.0 W/m2
15:58 82.2 °F /  27.9 °C 56.1 °F /  13.4 °C 30.11in /  1019.5hPa WNW 2.0mph /  3.2km/h 4.0mph /  6.4km/h 41% 0.00in /  0mm 241.0 W/m2
16:05 81.5 °F /  27.5 °C 56.1 °F /  13.4 °C 30.11in /  1019.5hPa Calm   1.0mph /  1.6km/h 42% 0.00in /  0mm 279.0 W/m2
16:10 81.1 °F /  27.3 °C 57.2 °F /  14 °C 30.11in /  1019.5hPa WSW 2.0mph /  3.2km/h 3.0mph /  4.8km/h 44% 0.00in /  0mm 318.0 W/m2
16:15 81.3 °F /  27.4 °C 56.7 °F /  13.7 °C 30.10in /  1019.2hPa Calm   1.0mph /  1.6km/h 43% 0.00in /  0mm 241.0 W/m2
16:20 81.3 °F /  27.4 °C 56.1 °F /  13.4 °C 30.10in /  1019.2hPa Calm   1.0mph /  1.6km/h 42% 0.00in /  0mm 185.0 W/m2
16:25 81.3 °F /  27.4 °C 55.4 °F /  13 °C 30.11in /  1019.5hPa SSE 6.0mph /  9.7km/h 7.0mph /  11.3km/h 41% 0.00in /  0mm 162.0 W/m2
16:29 81.1 °F /  27.3 °C 57.2 °F /  14 °C 30.11in /  1019.5hPa NE 6.9mph /  11.1km/h 12.0mph /  19.3km/h 44% 0.00in /  0mm 151.0 W/m2
16:34 80.4 °F /  26.9 °C 56.5 °F /  13.6 °C 30.11in /  1019.5hPa East 2.9mph /  4.7km/h 6.0mph /  9.7km/h 44% 0.00in /  0mm 134.0 W/m2
16:40 80.1 °F /  26.7 °C 56.1 °F /  13.4 °C 30.11in /  1019.5hPa SE 10.1mph /  16.3km/h 10.1mph /  16.3km/h 44% 0.00in /  0mm 130.0 W/m2
16:45 79.5 °F /  26.4 °C 55.0 °F /  12.8 °C 30.11in /  1019.5hPa NE 4.0mph /  6.4km/h 7.0mph /  11.3km/h 43% 0.00in /  0mm 116.0 W/m2
16:50 79.2 °F /  26.2 °C 54.7 °F /  12.6 °C 30.11in /  1019.5hPa East 2.0mph /  3.2km/h 6.0mph /  9.7km/h 43% 0.00in /  0mm 100.0 W/m2
16:51 79.0 °F /  26.1 °C 55.2 °F /  12.9 °C 30.11in /  1019.5hPa Calm   4.0mph /  6.4km/h 44% 0.00in /  0mm 98.0 W/m2
16:53 79.0 °F /  26.1 °C 55.2 °F /  12.9 °C 30.11in /  1019.5hPa SE 2.0mph /  3.2km/h 4.0mph /  6.4km/h 44% 0.00in /  0mm 93.0 W/m2
16:58 79.0 °F /  26.1 °C 56.5 °F /  13.6 °C 30.11in /  1019.5hPa East 2.0mph /  3.2km/h 3.0mph /  4.8km/h 46% 0.00in /  0mm 83.0 W/m2
17:01 78.8 °F /  26 °C 55.6 °F /  13.1 °C 30.11in /  1019.5hPa ENE 2.0mph /  3.2km/h 8.0mph /  12.9km/h 45% 0.00in /  0mm 74.0 W/m2
17:06 78.6 °F /  25.9 °C 55.6 °F /  13.1 °C 30.11in /  1019.5hPa Calm   8.0mph /  12.9km/h 45% 0.00in /  0mm 53.0 W/m2
17:11 78.4 °F /  25.8 °C 54.7 °F /  12.6 °C 30.11in /  1019.5hPa ENE 2.0mph /  3.2km/h 6.0mph /  9.7km/h 44% 0.00in /  0mm 33.0 W/m2
17:16 78.3 °F /  25.7 °C 55.2 °F /  12.9 °C 30.12in /  1019.9hPa NE 0.9mph /  1.4km/h 5.0mph /  8km/h 45% 0.00in /  0mm 23.0 W/m2
17:21 77.7 °F /  25.4 °C 55.9 °F /  13.3 °C 30.14in /  1020.5hPa NE 8.9mph /  14.3km/h 14.0mph /  22.5km/h 47% 0.00in /  0mm 12.0 W/m2
17:27 76.3 °F /  24.6 °C 59.9 °F /  15.5 °C 30.15in /  1020.9hPa NE 4.0mph /  6.4km/h 11.0mph /  17.7km/h 57% 0.00in /  0mm 18.0 W/m2
17:33 74.7 °F /  23.7 °C 60.8 °F /  16 °C 30.15in /  1020.9hPa SSE 6.0mph /  9.7km/h 11.0mph /  17.7km/h 62% 0.00in /  0mm 14.0 W/m2
17:38 73.2 °F /  22.9 °C 62.8 °F /  17.1 °C 30.15in /  1020.9hPa NE 8.9mph /  14.3km/h 12.0mph /  19.3km/h 70% 0.01in /  0.25mm 14.0 W/m2
17:43 70.9 °F /  21.6 °C 62.2 °F /  16.8 °C 30.16in /  1021.2hPa East 10.1mph /  16.3km/h 11.0mph /  17.7km/h 74% 0.02in /  0.51mm 19.0 W/m2
17:45 70.2 °F /  21.2 °C 62.6 °F /  17 °C 30.16in /  1021.2hPa NE 4.0mph /  6.4km/h 12.0mph /  19.3km/h 77% 0.02in /  0.51mm 19.0 W/m2
17:50 68.7 °F /  20.4 °C 62.6 °F /  17 °C 30.17in /  1021.6hPa West 4.9mph /  7.9km/h 9.0mph /  14.5km/h 81% 0.06in /  1.52mm 14.0 W/m2
17:55 67.8 °F /  19.9 °C 62.8 °F /  17.1 °C 30.18in /  1021.9hPa WSW 2.9mph /  4.7km/h 7.0mph /  11.3km/h 84% 0.16in /  4.06mm 9.0 W/m2
18:00 67.3 °F /  19.6 °C 63.0 °F /  17.2 °C 30.19in /  1022.2hPa West 2.9mph /  4.7km/h 5.0mph /  8km/h 86% 0.23in /  5.84mm 0.0 W/m2
18:05 65.5 °F /  18.6 °C 60.4 °F /  15.8 °C 30.19in /  1022.2hPa SW 4.0mph /  6.4km/h 10.0mph /  16.1km/h 84% 0.43in /  10.92mm 5.0 W/m2
18:10 64.0 °F /  17.8 °C 60.1 °F /  15.6 °C 30.21in /  1022.9hPa WSW 4.0mph /  6.4km/h 7.0mph /  11.3km/h 87% 0.61in /  15.49mm 7.0 W/m2
18:16 63.3 °F /  17.4 °C 59.7 °F /  15.4 °C 30.21in /  1022.9hPa SW 2.0mph /  3.2km/h 2.0mph /  3.2km/h 88% 0.78in /  19.81mm 7.0 W/m2
18:21 62.8 °F /  17.1 °C 59.5 °F /  15.3 °C 30.22in /  1023.2hPa SSE 2.9mph /  4.7km/h 6.0mph /  9.7km/h 89% 0.93in /  23.62mm 5.0 W/m2
18:26 62.4 °F /  16.9 °C 59.4 °F /  15.2 °C 30.22in /  1023.2hPa ESE 0.9mph /  1.4km/h 8.0mph /  12.9km/h 90% 1.10in /  27.94mm 5.0 W/m2
18:31 62.1 °F /  16.7 °C 59.2 °F /  15.1 °C 30.22in /  1023.2hPa ESE 2.0mph /  3.2km/h 3.0mph /  4.8km/h 90% 1.32in /  33.53mm 5.0 W/m2
18:36 62.1 °F /  16.7 °C 59.4 °F /  15.2 °C 30.22in /  1023.2hPa ENE 2.0mph /  3.2km/h 3.0mph /  4.8km/h 91% 1.57in /  39.88mm 5.0 W/m2
18:37 62.1 °F /  16.7 °C 59.7 °F /  15.4 °C 30.22in /  1023.2hPa ENE 0.9mph /  1.4km/h 3.0mph /  4.8km/h 92% 1.60in /  40.64mm 5.0 W/m2
18:42 62.1 °F /  16.7 °C 59.7 °F /  15.4 °C 30.22in /  1023.2hPa Calm   1.0mph /  1.6km/h 92% 1.72in /  43.69mm 5.0 W/m2
18:47 61.9 °F /  16.6 °C 59.5 °F /  15.3 °C 30.22in /  1023.2hPa ENE 0.9mph /  1.4km/h 3.0mph /  4.8km/h 92% 1.80in /  45.72mm 5.0 W/m2
18:52 61.9 °F /  16.6 °C 59.9 °F /  15.5 °C 30.22in /  1023.2hPa ENE 0.9mph /  1.4km/h 1.0mph /  1.6km/h 93% 1.80in /  45.72mm 5.0 W/m2
18:55 61.9 °F /  16.6 °C 59.9 °F /  15.5 °C 30.22in /  1023.2hPa Calm   1.0mph /  1.6km/h 93% 1.77in /  44.96mm 5.0 W/m2
19:01 61.9 °F /  16.6 °C 59.9 °F /  15.5 °C 30.22in /  1023.2hPa East 0.9mph /  1.4km/h 3.0mph /  4.8km/h 93% 1.72in /  43.69mm 5.0 W/m2
19:06 61.9 °F /  16.6 °C 59.9 °F /  15.5 °C 30.22in /  1023.2hPa Calm   1.0mph /  1.6km/h 93% 1.54in /  39.12mm 0.0 W/m2
19:11 61.9 °F /  16.6 °C 59.9 °F /  15.5 °C 30.22in /  1023.2hPa Calm     93% 1.35in /  34.29mm 0.0 W/m2
19:16 61.9 °F /  16.6 °C 60.1 °F /  15.6 °C 30.22in /  1023.2hPa Calm   2.0mph /  3.2km/h 94% 1.20in /  30.48mm 0.0 W/m2
19:21 61.9 °F /  16.6 °C 60.1 °F /  15.6 °C 30.22in /  1023.2hPa ESE 2.0mph /  3.2km/h 4.0mph /  6.4km/h 94% 1.03in /  26.16mm 0.0 W/m2
19:26 62.1 °F /  16.7 °C 60.3 °F /  15.7 °C 30.22in /  1023.2hPa East 0.9mph /  1.4km/h 4.0mph /  6.4km/h 94% 0.86in /  21.84mm 0.0 W/m2
19:31 62.2 °F /  16.8 °C 60.4 °F /  15.8 °C 30.22in /  1023.2hPa Calm   3.0mph /  4.8km/h 94% 0.64in /  16.26mm 0.0 W/m2
19:36 62.4 °F /  16.9 °C 60.6 °F /  15.9 °C 30.21in /  1022.9hPa East 0.9mph /  1.4km/h 2.0mph /  3.2km/h 94% 0.46in /  11.68mm 0.0 W/m2
19:47 62.4 °F /  16.9 °C 60.6 °F /  15.9 °C 30.21in /  1022.9hPa East 0.9mph /  1.4km/h 2.0mph /  3.2km/h 94% 0.27in /  6.86mm 0.0 W/m2
19:52 62.4 °F /  16.9 °C 60.6 °F /  15.9 °C 30.21in /  1022.9hPa NE 2.0mph /  3.2km/h 3.0mph /  4.8km/h 94% 0.18in /  4.57mm 0.0 W/m2
19:57 62.4 °F /  16.9 °C 60.6 °F /  15.9 °C 30.21in /  1022.9hPa ENE 5.0mph /  8km/h 5.0mph /  8km/h 94% 0.15in /  3.81mm 0.0 W/m2
20:02 62.6 °F /  17 °C 61.2 °F /  16.2 °C 30.21in /  1022.9hPa NNE 2.9mph /  4.7km/h 4.0mph /  6.4km/h 95% 0.13in /  3.3mm 0.0 W/m2
20:07 62.6 °F /  17 °C 60.8 °F /  16 °C 30.22in /  1023.2hPa ENE 2.9mph /  4.7km/h 5.0mph /  8km/h 94% 0.12in /  3.05mm 0.0 W/m2
20:12 62.4 °F /  16.9 °C 60.6 °F /  15.9 °C 30.22in /  1023.2hPa East 0.9mph /  1.4km/h 3.0mph /  4.8km/h 94% 0.12in /  3.05mm 0.0 W/m2
20:13 62.4 °F /  16.9 °C 60.6 °F /  15.9 °C 30.22in /  1023.2hPa Calm   3.0mph /  4.8km/h 94% 0.12in /  3.05mm 0.0 W/m2
20:18 62.4 °F /  16.9 °C 60.6 °F /  15.9 °C 30.22in /  1023.2hPa East 0.9mph /  1.4km/h 5.0mph /  8km/h 94% 0.11in /  2.79mm 0.0 W/m2
20:23 62.4 °F /  16.9 °C 61.0 °F /  16.1 °C 30.22in /  1023.2hPa East 0.9mph /  1.4km/h 6.0mph /  9.7km/h 95% 0.10in /  2.54mm 0.0 W/m2
20:25 62.4 °F /  16.9 °C 61.0 °F /  16.1 °C 30.23in /  1023.6hPa Calm   6.0mph /  9.7km/h 95% 0.10in /  2.54mm 0.0 W/m2
20:30 62.4 °F /  16.9 °C 61.0 °F /  16.1 °C 30.23in /  1023.6hPa East 2.0mph /  3.2km/h 3.0mph /  4.8km/h 95% 0.09in /  2.29mm 0.0 W/m2
20:35 62.8 °F /  17.1 °C 61.3 °F /  16.3 °C 30.23in /  1023.6hPa Calm   4.0mph /  6.4km/h 95% 0.08in /  2.03mm 0.0 W/m2
20:40 62.8 °F /  17.1 °C 61.3 °F /  16.3 °C 30.23in /  1023.6hPa East 2.9mph /  4.7km/h 4.0mph /  6.4km/h 95% 0.07in /  1.78mm 0.0 W/m2
20:45 62.8 °F /  17.1 °C 61.3 °F /  16.3 °C 30.23in /  1023.6hPa ENE 2.9mph /  4.7km/h 5.0mph /  8km/h 95% 0.05in /  1.27mm 0.0 W/m2
20:50 62.8 °F /  17.1 °C 61.3 °F /  16.3 °C 30.24in /  1023.9hPa East 6.0mph /  9.7km/h 6.0mph /  9.7km/h 95% 0.03in /  0.76mm 0.0 W/m2
20:55 62.6 °F /  17 °C 61.2 °F /  16.2 °C 30.24in /  1023.9hPa Calm   7.0mph /  11.3km/h 95% 0.02in /  0.51mm 0.0 W/m2
21:00 62.4 °F /  16.9 °C 60.6 °F /  15.9 °C 30.24in /  1023.9hPa ENE 2.9mph /  4.7km/h 6.0mph /  9.7km/h 94% 0.02in /  0.51mm 0.0 W/m2
21:05 62.4 °F /  16.9 °C 60.6 °F /  15.9 °C 30.24in /  1023.9hPa SE 2.0mph /  3.2km/h 6.0mph /  9.7km/h 94% 0.02in /  0.51mm 0.0 W/m2
21:11 62.2 °F /  16.8 °C 60.4 °F /  15.8 °C 30.24in /  1023.9hPa SE 2.0mph /  3.2km/h 4.0mph /  6.4km/h 94% 0.02in /  0.51mm 0.0 W/m2
21:14 62.2 °F /  16.8 °C 60.4 °F /  15.8 °C 30.24in /  1023.9hPa ESE 4.0mph /  6.4km/h 4.0mph /  6.4km/h 94% 0.02in /  0.51mm 0.0 W/m2
21:19 62.4 °F /  16.9 °C 60.6 °F /  15.9 °C 30.24in /  1023.9hPa ENE 2.0mph /  3.2km/h 4.0mph /  6.4km/h 94% 0.02in /  0.51mm 0.0 W/m2
21:24 62.2 °F /  16.8 °C 60.4 °F /  15.8 °C 30.24in /  1023.9hPa Calm   7.0mph /  11.3km/h 94% 0.02in /  0.51mm 0.0 W/m2
21:29 62.2 °F /  16.8 °C 60.4 °F /  15.8 °C 30.24in /  1023.9hPa Calm   3.0mph /  4.8km/h 94% 0.02in /  0.51mm 0.0 W/m2
21:34 62.1 °F /  16.7 °C 60.3 °F /  15.7 °C 30.24in /  1023.9hPa East 0.9mph /  1.4km/h 4.0mph /  6.4km/h 94% 0.02in /  0.51mm 0.0 W/m2
21:36 62.1 °F /  16.7 °C 60.3 °F /  15.7 °C 30.24in /  1023.9hPa Calm   6.0mph /  9.7km/h 94% 0.02in /  0.51mm 0.0 W/m2
21:41 61.9 °F /  16.6 °C 60.1 °F /  15.6 °C 30.24in /  1023.9hPa ESE 0.9mph /  1.4km/h 8.0mph /  12.9km/h 94% 0.02in /  0.51mm 0.0 W/m2
21:46 61.7 °F /  16.5 °C 59.9 °F /  15.5 °C 30.25in /  1024.3hPa ESE 2.0mph /  3.2km/h 8.0mph /  12.9km/h 94% 0.02in /  0.51mm 0.0 W/m2
21:51 61.7 °F /  16.5 °C 59.9 °F /  15.5 °C 30.25in /  1024.3hPa Calm   3.0mph /  4.8km/h 94% 0.02in /  0.51mm 0.0 W/m2
21:57 61.5 °F /  16.4 °C 59.7 °F /  15.4 °C 30.25in /  1024.3hPa Calm   2.0mph /  3.2km/h 94% 0.02in /  0.51mm 0.0 W/m2
22:07 61.5 °F /  16.4 °C 59.7 °F /  15.4 °C 30.26in /  1024.6hPa Calm     94% 0.01in /  0.25mm 0.0 W/m2
22:09 61.5 °F /  16.4 °C 59.7 °F /  15.4 °C 30.26in /  1024.6hPa Calm     94% 0.01in /  0.25mm 0.0 W/m2
22:14 61.5 °F /  16.4 °C 59.7 °F /  15.4 °C 30.27in /  1024.9hPa Calm     94% 0.01in /  0.25mm 0.0 W/m2
22:19 61.7 °F /  16.5 °C 59.9 °F /  15.5 °C 30.26in /  1024.6hPa Calm     94% 0.01in /  0.25mm 0.0 W/m2
22:24 61.9 °F /  16.6 °C 60.1 °F /  15.6 °C 30.27in /  1024.9hPa Calm   2.0mph /  3.2km/h 94% 0.00in /  0mm 0.0 W/m2
22:26 61.9 °F /  16.6 °C 60.1 °F /  15.6 °C 30.27in /  1024.9hPa Calm   2.0mph /  3.2km/h 94% 0.00in /  0mm 0.0 W/m2
22:31 61.9 °F /  16.6 °C 60.1 °F /  15.6 °C 30.28in /  1025.3hPa Calm   2.0mph /  3.2km/h 94% 0.00in /  0mm 0.0 W/m2
22:36 61.9 °F /  16.6 °C 60.4 °F /  15.8 °C 30.29in /  1025.6hPa Calm     95% 0.00in /  0mm 0.0 W/m2
22:47 62.1 °F /  16.7 °C 60.6 °F /  15.9 °C 30.28in /  1025.3hPa Calm     95% 0.00in /  0mm 0.0 W/m2
22:52 62.1 °F /  16.7 °C 60.6 °F /  15.9 °C 30.29in /  1025.6hPa Calm   1.0mph /  1.6km/h 95% 0.00in /  0mm 0.0 W/m2
22:54 62.1 °F /  16.7 °C 60.6 °F /  15.9 °C 30.28in /  1025.3hPa Calm   3.0mph /  4.8km/h 95% 0.00in /  0mm 0.0 W/m2
22:59 62.2 °F /  16.8 °C 60.8 °F /  16 °C 30.29in /  1025.6hPa Calm     95% 0.00in /  0mm 0.0 W/m2
23:04 62.4 °F /  16.9 °C 61.0 °F /  16.1 °C 30.28in /  1025.3hPa Calm   1.0mph /  1.6km/h 95% 0.00in /  0mm 0.0 W/m2
23:09 62.4 °F /  16.9 °C 61.0 °F /  16.1 °C 30.28in /  1025.3hPa ESE 2.0mph /  3.2km/h 2.0mph /  3.2km/h 95% 0.00in /  0mm 0.0 W/m2
23:11 62.4 °F /  16.9 °C 61.0 °F /  16.1 °C 30.28in /  1025.3hPa Calm   1.0mph /  1.6km/h 95% 0.00in /  0mm 0.0 W/m2
23:16 62.6 °F /  17 °C 61.2 °F /  16.2 °C 30.28in /  1025.3hPa Calm   5.0mph /  8km/h 95% 0.00in /  0mm 0.0 W/m2
23:21 62.6 °F /  17 °C 61.2 °F /  16.2 °C 30.28in /  1025.3hPa ESE 0.9mph /  1.4km/h 3.0mph /  4.8km/h 95% 0.00in /  0mm 0.0 W/m2
23:24 62.6 °F /  17 °C 61.2 °F /  16.2 °C 30.28in /  1025.3hPa Calm   2.0mph /  3.2km/h 95% 0.00in /  0mm 0.0 W/m2
23:30 62.6 °F /  17 °C 61.2 °F /  16.2 °C 30.29in /  1025.6hPa Calm   1.0mph /  1.6km/h 95% 0.00in /  0mm 0.0 W/m2
23:35 62.8 °F /  17.1 °C 61.3 °F /  16.3 °C 30.29in /  1025.6hPa Calm   2.0mph /  3.2km/h 95% 0.00in /  0mm 0.0 W/m2
23:41 62.8 °F /  17.1 °C 61.3 °F /  16.3 °C 30.29in /  1025.6hPa Calm   1.0mph /  1.6km/h 95% 0.00in /  0mm 0.0 W/m2
23:46 62.8 °F /  17.1 °C 61.3 °F /  16.3 °C 30.28in /  1025.3hPa Calm   1.0mph /  1.6km/h 95% 0.00in /  0mm 0.0 W/m2
23:51 62.8 °F /  17.1 °C 61.3 °F /  16.3 °C 30.28in /  1025.3hPa Calm   2.0mph /  3.2km/h 95% 0.00in /  0mm 0.0 W/m2
23:56 62.8 °F /  17.1 °C 61.3 °F /  16.3 °C 30.28in /  1025.3hPa Calm     95% 0.00in /  0mm 0.0 W/m2
Olympia, Windhoek, Namibia
Compliments of Weather Underground - 3.5 mb